sensor_id;sensor_type;location;lat;lon;timestamp;pressure;altitude;pressure_sealevel;temperature;humidity
68226;BME280;55045;49.410;11.030;2022-12-29T00:03:24;97687.09;;;5.67;100.00
68226;BME280;55045;49.410;11.030;2022-12-29T00:06:28;97691.31;;;5.44;100.00
68226;BME280;55045;49.410;11.030;2022-12-29T00:09:32;97688.63;;;5.47;100.00
68226;BME280;55045;49.410;11.030;2022-12-29T00:12:35;97685.66;;;5.58;100.00
68226;BME280;55045;49.410;11.030;2022-12-29T00:18:18;97680.47;;;5.60;100.00
68226;BME280;55045;49.410;11.030;2022-12-29T00:21:22;97668.09;;;5.46;100.00
68226;BME280;55045;49.410;11.030;2022-12-29T00:24:44;97679.69;;;5.58;100.00
68226;BME280;55045;49.410;11.030;2022-12-29T00:28:07;97681.31;;;5.60;100.00
68226;BME280;55045;49.410;11.030;2022-12-29T00:33:20;97665.72;;;5.65;100.00
68226;BME280;55045;49.410;11.030;2022-12-29T00:36:41;97666.56;;;5.65;100.00
68226;BME280;55045;49.410;11.030;2022-12-29T00:39:45;97647.31;;;5.52;100.00
68226;BME280;55045;49.410;11.030;2022-12-29T00:43:06;97663.03;;;5.68;100.00
68226;BME280;55045;49.410;11.030;2022-12-29T00:48:18;97659.78;;;5.63;100.00
68226;BME280;55045;49.410;11.030;2022-12-29T00:51:41;97658.00;;;5.65;100.00
68226;BME280;55045;49.410;11.030;2022-12-29T00:54:44;97651.84;;;5.69;100.00
68226;BME280;55045;49.410;11.030;2022-12-29T00:57:50;97627.22;;;5.62;100.00
68226;BME280;55045;49.410;11.030;2022-12-29T01:03:20;97637.41;;;5.65;100.00
68226;BME280;55045;49.410;11.030;2022-12-29T01:06:23;97663.81;;;5.70;100.00
68226;BME280;55045;49.410;11.030;2022-12-29T01:09:27;97664.03;;;5.87;100.00
68226;BME280;55045;49.410;11.030;2022-12-29T01:12:47;97657.03;;;5.67;100.00
68226;BME280;55045;49.410;11.030;2022-12-29T01:18:17;97601.28;;;5.44;100.00
68226;BME280;55045;49.410;11.030;2022-12-29T01:21:21;97657.88;;;5.68;100.00
68226;BME280;55045;49.410;11.030;2022-12-29T01:24:25;97648.31;;;5.96;100.00
68226;BME280;55045;49.410;11.030;2022-12-29T01:27:28;97565.88;;;5.28;100.00
68226;BME280;55045;49.410;11.030;2022-12-29T01:33:17;97617.22;;;5.77;100.00
68226;BME280;55045;49.410;11.030;2022-12-29T01:36:20;97628.75;;;5.91;100.00
68226;BME280;55045;49.410;11.030;2022-12-29T01:39:24;97617.91;;;6.06;100.00
68226;BME280;55045;49.410;11.030;2022-12-29T01:42:28;97619.66;;;6.05;100.00
68226;BME280;55045;49.410;11.030;2022-12-29T01:48:18;97599.81;;;6.07;100.00
68226;BME280;55045;49.410;11.030;2022-12-29T01:51:23;97615.53;;;6.23;100.00
68226;BME280;55045;49.410;11.030;2022-12-29T01:54:30;97596.00;;;6.18;100.00
68226;BME280;55045;49.410;11.030;2022-12-29T01:57:37;97604.97;;;6.07;100.00
68226;BME280;55045;49.410;11.030;2022-12-29T02:03:22;97589.78;;;6.23;100.00
68226;BME280;55045;49.410;11.030;2022-12-29T02:06:33;97592.50;;;6.19;100.00
68226;BME280;55045;49.410;11.030;2022-12-29T02:09:39;97576.84;;;6.25;100.00
68226;BME280;55045;49.410;11.030;2022-12-29T02:12:45;97556.28;;;6.01;100.00
68226;BME280;55045;49.410;11.030;2022-12-29T02:18:26;97588.28;;;6.18;100.00
68226;BME280;55045;49.410;11.030;2022-12-29T02:21:44;97591.25;;;6.29;100.00
68226;BME280;55045;49.410;11.030;2022-12-29T02:25:30;97593.13;;;6.25;100.00
68226;BME280;55045;49.410;11.030;2022-12-29T02:28:59;97571.31;;;6.12;100.00
68226;BME280;55045;49.410;11.030;2022-12-29T02:33:30;97582.75;;;6.27;100.00
68226;BME280;55045;49.410;11.030;2022-12-29T02:36:42;97559.53;;;6.06;100.00
68226;BME280;55045;49.410;11.030;2022-12-29T02:39:53;97587.34;;;6.41;100.00
68226;BME280;55045;49.410;11.030;2022-12-29T02:43:04;97586.75;;;6.56;100.00
68226;BME280;55045;49.410;11.030;2022-12-29T02:48:21;97579.69;;;6.39;100.00
68226;BME280;55045;49.410;11.030;2022-12-29T02:51:29;97578.84;;;6.39;100.00
68226;BME280;55045;49.410;11.030;2022-12-29T02:54:35;97575.34;;;6.61;100.00
68226;BME280;55045;49.410;11.030;2022-12-29T02:57:45;97569.69;;;6.74;100.00
68226;BME280;55045;49.410;11.030;2022-12-29T03:03:28;97566.16;;;6.76;100.00
68226;BME280;55045;49.410;11.030;2022-12-29T03:06:47;97558.91;;;6.64;100.00
68226;BME280;55045;49.410;11.030;2022-12-29T03:10:01;97549.63;;;6.40;100.00
68226;BME280;55045;49.410;11.030;2022-12-29T03:13:13;97565.63;;;6.68;100.00
68226;BME280;55045;49.410;11.030;2022-12-29T03:18:21;97562.34;;;6.64;100.00
68226;BME280;55045;49.410;11.030;2022-12-29T03:21:34;97566.59;;;6.66;100.00
68226;BME280;55045;49.410;11.030;2022-12-29T03:24:59;97566.06;;;6.57;100.00
68226;BME280;55045;49.410;11.030;2022-12-29T03:28:07;97548.75;;;6.61;100.00
68226;BME280;55045;49.410;11.030;2022-12-29T03:33:22;97556.47;;;6.61;100.00
68226;BME280;55045;49.410;11.030;2022-12-29T03:36:29;97553.72;;;6.66;100.00
68226;BME280;55045;49.410;11.030;2022-12-29T03:39:35;97466.53;;;5.94;100.00
68226;BME280;55045;49.410;11.030;2022-12-29T03:42:40;97551.28;;;6.41;100.00
68226;BME280;55045;49.410;11.030;2022-12-29T03:48:18;97552.41;;;6.35;100.00
68226;BME280;55045;49.410;11.030;2022-12-29T03:51:23;97552.72;;;6.48;100.00
68226;BME280;55045;49.410;11.030;2022-12-29T03:54:29;97541.72;;;6.44;100.00
68226;BME280;55045;49.410;11.030;2022-12-29T03:57:32;97557.19;;;6.44;100.00
68226;BME280;55045;49.410;11.030;2022-12-29T04:03:19;97539.91;;;6.46;100.00
68226;BME280;55045;49.410;11.030;2022-12-29T04:06:22;97551.19;;;6.44;100.00
68226;BME280;55045;49.410;11.030;2022-12-29T04:09:32;97551.72;;;6.30;100.00
68226;BME280;55045;49.410;11.030;2022-12-29T04:12:36;97547.09;;;6.38;100.00
68226;BME280;55045;49.410;11.030;2022-12-29T04:18:16;97538.69;;;6.13;100.00
68226;BME280;55045;49.410;11.030;2022-12-29T04:21:20;97546.31;;;6.16;100.00
68226;BME280;55045;49.410;11.030;2022-12-29T04:24:25;97548.81;;;6.17;100.00
68226;BME280;55045;49.410;11.030;2022-12-29T04:27:29;97551.94;;;6.03;100.00
68226;BME280;55045;49.410;11.030;2022-12-29T04:34:35;97546.13;;;5.75;100.00
68226;BME280;55045;49.410;11.030;2022-12-29T04:37:38;97561.00;;;5.90;100.00
68226;BME280;55045;49.410;11.030;2022-12-29T04:40:43;97527.16;;;5.77;100.00
68226;BME280;55045;49.410;11.030;2022-12-29T04:43:46;97555.06;;;5.88;100.00
68226;BME280;55045;49.410;11.030;2022-12-29T04:48:17;97553.72;;;6.01;100.00
68226;BME280;55045;49.410;11.030;2022-12-29T04:52:09;97544.25;;;6.02;100.00
68226;BME280;55045;49.410;11.030;2022-12-29T04:55:14;97540.59;;;6.07;100.00
68226;BME280;55045;49.410;11.030;2022-12-29T04:58:19;97522.84;;;5.78;100.00
68226;BME280;55045;49.410;11.030;2022-12-29T05:03:22;97538.63;;;5.92;100.00
68226;BME280;55045;49.410;11.030;2022-12-29T05:06:26;97531.25;;;5.83;100.00
68226;BME280;55045;49.410;11.030;2022-12-29T05:09:29;97533.91;;;5.80;100.00
68226;BME280;55045;49.410;11.030;2022-12-29T05:12:35;97546.22;;;5.72;100.00
68226;BME280;55045;49.410;11.030;2022-12-29T05:18:18;97563.13;;;5.79;100.00
68226;BME280;55045;49.410;11.030;2022-12-29T05:21:23;97565.19;;;5.69;100.00
68226;BME280;55045;49.410;11.030;2022-12-29T05:24:26;97560.19;;;5.88;100.00
68226;BME280;55045;49.410;11.030;2022-12-29T05:27:31;97561.56;;;5.98;100.00
68226;BME280;55045;49.410;11.030;2022-12-29T05:33:19;97567.69;;;5.72;100.00
68226;BME280;55045;49.410;11.030;2022-12-29T05:36:24;97563.13;;;5.79;100.00
68226;BME280;55045;49.410;11.030;2022-12-29T05:39:32;97547.94;;;5.73;100.00
68226;BME280;55045;49.410;11.030;2022-12-29T05:42:38;97545.09;;;5.57;100.00
68226;BME280;55045;49.410;11.030;2022-12-29T05:48:17;97546.84;;;5.33;100.00
68226;BME280;55045;49.410;11.030;2022-12-29T05:51:39;97532.34;;;5.31;100.00
68226;BME280;55045;49.410;11.030;2022-12-29T05:54:42;97548.63;;;5.55;100.00
68226;BME280;55045;49.410;11.030;2022-12-29T05:57:48;97553.63;;;5.58;100.00
68226;BME280;55045;49.410;11.030;2022-12-29T06:03:37;97567.34;;;5.35;100.00
68226;BME280;55045;49.410;11.030;2022-12-29T06:06:48;97552.31;;;5.24;100.00
68226;BME280;55045;49.410;11.030;2022-12-29T06:10:08;97577.13;;;5.25;100.00
68226;BME280;55045;49.410;11.030;2022-12-29T06:13:19;97567.28;;;5.36;100.00
68226;BME280;55045;49.410;11.030;2022-12-29T06:18:17;97556.41;;;5.05;100.00
68226;BME280;55045;49.410;11.030;2022-12-29T06:21:21;97549.94;;;5.18;100.00
68226;BME280;55045;49.410;11.030;2022-12-29T06:24:24;97563.44;;;5.25;100.00
68226;BME280;55045;49.410;11.030;2022-12-29T06:27:28;97565.16;;;5.24;100.00
68226;BME280;55045;49.410;11.030;2022-12-29T06:33:18;97562.16;;;5.36;100.00
68226;BME280;55045;49.410;11.030;2022-12-29T06:36:22;97559.78;;;5.30;100.00
68226;BME280;55045;49.410;11.030;2022-12-29T06:39:25;97560.78;;;5.26;100.00
68226;BME280;55045;49.410;11.030;2022-12-29T06:42:37;97555.22;;;5.38;100.00
68226;BME280;55045;49.410;11.030;2022-12-29T06:48:19;97543.56;;;5.52;100.00
68226;BME280;55045;49.410;11.030;2022-12-29T06:51:22;97556.66;;;5.69;100.00
68226;BME280;55045;49.410;11.030;2022-12-29T06:54:25;97550.13;;;5.82;100.00
68226;BME280;55045;49.410;11.030;2022-12-29T06:57:29;97551.66;;;5.88;100.00
68226;BME280;55045;49.410;11.030;2022-12-29T07:03:26;97545.53;;;5.68;100.00
68226;BME280;55045;49.410;11.030;2022-12-29T07:06:30;97545.88;;;5.81;100.00
68226;BME280;55045;49.410;11.030;2022-12-29T07:09:33;97555.34;;;5.81;100.00
68226;BME280;55045;49.410;11.030;2022-12-29T07:12:36;97553.31;;;5.89;100.00
68226;BME280;55045;49.410;11.030;2022-12-29T07:18:19;97534.34;;;5.46;100.00
68226;BME280;55045;49.410;11.030;2022-12-29T07:21:25;97548.38;;;5.61;100.00
68226;BME280;55045;49.410;11.030;2022-12-29T07:24:29;97569.59;;;5.89;100.00
68226;BME280;55045;49.410;11.030;2022-12-29T07:27:32;97576.19;;;5.74;100.00
68226;BME280;55045;49.410;11.030;2022-12-29T07:33:19;97591.03;;;5.90;100.00
68226;BME280;55045;49.410;11.030;2022-12-29T07:36:23;97572.75;;;5.97;100.00
68226;BME280;55045;49.410;11.030;2022-12-29T07:39:33;97587.72;;;6.10;100.00
68226;BME280;55045;49.410;11.030;2022-12-29T07:42:40;97569.94;;;6.25;100.00
68226;BME280;55045;49.410;11.030;2022-12-29T07:45:44;97574.19;;;6.26;100.00
68226;BME280;55045;49.410;11.030;2022-12-29T07:48:49;97586.50;;;6.40;100.00
68226;BME280;55045;49.410;11.030;2022-12-29T07:51:53;97581.00;;;6.49;100.00
68226;BME280;55045;49.410;11.030;2022-12-29T07:54:57;97591.44;;;6.46;100.00
68226;BME280;55045;49.410;11.030;2022-12-29T07:58:20;97580.16;;;6.49;100.00
68226;BME280;55045;49.410;11.030;2022-12-29T08:01:43;97585.66;;;6.61;100.00
68226;BME280;55045;49.410;11.030;2022-12-29T08:05:08;97574.56;;;6.59;100.00
68226;BME280;55045;49.410;11.030;2022-12-29T08:08:31;97575.09;;;6.68;100.00
68226;BME280;55045;49.410;11.030;2022-12-29T08:11:54;97571.81;;;6.84;100.00
68226;BME280;55045;49.410;11.030;2022-12-29T08:15:00;97570.47;;;6.96;100.00
68226;BME280;55045;49.410;11.030;2022-12-29T08:18:04;97574.81;;;6.96;100.00
68226;BME280;55045;49.410;11.030;2022-12-29T08:21:09;97577.63;;;7.10;100.00
68226;BME280;55045;49.410;11.030;2022-12-29T08:24:16;97568.38;;;7.04;100.00
68226;BME280;55045;49.410;11.030;2022-12-29T08:27:20;97585.34;;;7.10;100.00
68226;BME280;55045;49.410;11.030;2022-12-29T08:30:27;97581.47;;;7.20;100.00
68226;BME280;55045;49.410;11.030;2022-12-29T08:33:30;97582.53;;;7.35;100.00
68226;BME280;55045;49.410;11.030;2022-12-29T08:36:35;97590.53;;;7.49;100.00
68226;BME280;55045;49.410;11.030;2022-12-29T08:39:39;97594.00;;;7.48;100.00
68226;BME280;55045;49.410;11.030;2022-12-29T08:42:43;97589.63;;;7.50;100.00
68226;BME280;55045;49.410;11.030;2022-12-29T08:45:46;97599.25;;;7.46;100.00
68226;BME280;55045;49.410;11.030;2022-12-29T08:48:50;97601.72;;;7.68;100.00
68226;BME280;55045;49.410;11.030;2022-12-29T08:51:54;97597.22;;;7.72;100.00
68226;BME280;55045;49.410;11.030;2022-12-29T08:54:58;97596.13;;;7.77;100.00
68226;BME280;55045;49.410;11.030;2022-12-29T08:58:01;97591.16;;;7.73;100.00
68226;BME280;55045;49.410;11.030;2022-12-29T09:01:05;97592.66;;;7.97;100.00
68226;BME280;55045;49.410;11.030;2022-12-29T09:04:10;97595.50;;;7.91;100.00
68226;BME280;55045;49.410;11.030;2022-12-29T09:07:18;97589.09;;;8.17;100.00
68226;BME280;55045;49.410;11.030;2022-12-29T09:10:21;97576.34;;;8.14;100.00
68226;BME280;55045;49.410;11.030;2022-12-29T09:13:25;97576.00;;;8.22;100.00
68226;BME280;55045;49.410;11.030;2022-12-29T09:16:28;97586.41;;;8.39;100.00
68226;BME280;55045;49.410;11.030;2022-12-29T09:19:32;97584.22;;;8.66;100.00
68226;BME280;55045;49.410;11.030;2022-12-29T09:22:37;97590.69;;;8.75;100.00
68226;BME280;55045;49.410;11.030;2022-12-29T09:25:40;97576.47;;;8.83;100.00
68226;BME280;55045;49.410;11.030;2022-12-29T09:28:45;97596.09;;;8.87;100.00
68226;BME280;55045;49.410;11.030;2022-12-29T09:31:49;97589.63;;;8.96;100.00
68226;BME280;55045;49.410;11.030;2022-12-29T09:34:52;97593.34;;;9.08;100.00
68226;BME280;55045;49.410;11.030;2022-12-29T09:37:59;97596.53;;;9.13;100.00
68226;BME280;55045;49.410;11.030;2022-12-29T09:41:06;97562.63;;;9.02;100.00
68226;BME280;55045;49.410;11.030;2022-12-29T09:44:19;97587.06;;;9.29;100.00
68226;BME280;55045;49.410;11.030;2022-12-29T09:47:26;97589.75;;;9.28;100.00
68226;BME280;55045;49.410;11.030;2022-12-29T09:50:33;97582.59;;;9.33;100.00
68226;BME280;55045;49.410;11.030;2022-12-29T09:53:41;97581.75;;;9.32;100.00
68226;BME280;55045;49.410;11.030;2022-12-29T09:56:46;97578.81;;;9.38;100.00
68226;BME280;55045;49.410;11.030;2022-12-29T09:59:53;97576.69;;;9.46;100.00
68226;BME280;55045;49.410;11.030;2022-12-29T10:03:02;97582.59;;;9.48;100.00
68226;BME280;55045;49.410;11.030;2022-12-29T10:06:12;97578.78;;;9.56;100.00
68226;BME280;55045;49.410;11.030;2022-12-29T10:09:23;97581.47;;;9.54;100.00
68226;BME280;55045;49.410;11.030;2022-12-29T10:12:37;97576.38;;;9.52;100.00
68226;BME280;55045;49.410;11.030;2022-12-29T10:15:56;97494.13;;;9.09;100.00
68226;BME280;55045;49.410;11.030;2022-12-29T10:19:16;97573.03;;;9.50;100.00
68226;BME280;55045;49.410;11.030;2022-12-29T10:22:43;97565.41;;;9.47;100.00
68226;BME280;55045;49.410;11.030;2022-12-29T10:25:54;97562.59;;;9.52;100.00
68226;BME280;55045;49.410;11.030;2022-12-29T10:29:02;97548.56;;;9.56;100.00
68226;BME280;55045;49.410;11.030;2022-12-29T10:34:36;97552.25;;;9.68;100.00
68226;BME280;55045;49.410;11.030;2022-12-29T10:37:44;97541.47;;;9.60;100.00
68226;BME280;55045;49.410;11.030;2022-12-29T10:40:51;97545.75;;;9.61;100.00
68226;BME280;55045;49.410;11.030;2022-12-29T10:43:56;97505.97;;;9.46;100.00
68226;BME280;55045;49.410;11.030;2022-12-29T10:47:03;97537.75;;;9.81;100.00
68226;BME280;55045;49.410;11.030;2022-12-29T10:50:12;97519.00;;;9.76;100.00
68226;BME280;55045;49.410;11.030;2022-12-29T10:53:20;97531.88;;;9.93;100.00
68226;BME280;55045;49.410;11.030;2022-12-29T10:56:30;97523.75;;;9.99;100.00
68226;BME280;55045;49.410;11.030;2022-12-29T10:59:36;97528.09;;;10.15;100.00
68226;BME280;55045;49.410;11.030;2022-12-29T11:03:02;97526.34;;;10.15;100.00
68226;BME280;55045;49.410;11.030;2022-12-29T11:06:21;97530.22;;;10.24;100.00
68226;BME280;55045;49.410;11.030;2022-12-29T11:09:29;97496.78;;;10.03;100.00
68226;BME280;55045;49.410;11.030;2022-12-29T11:12:58;97527.94;;;10.33;100.00
68226;BME280;55045;49.410;11.030;2022-12-29T11:16:03;97525.69;;;10.27;100.00
68226;BME280;55045;49.410;11.030;2022-12-29T11:19:19;97494.06;;;10.21;100.00
68226;BME280;55045;49.410;11.030;2022-12-29T11:22:27;97522.72;;;10.49;100.00
68226;BME280;55045;49.410;11.030;2022-12-29T11:25:31;97530.56;;;10.48;100.00
68226;BME280;55045;49.410;11.030;2022-12-29T11:28:34;97521.78;;;10.50;100.00
68226;BME280;55045;49.410;11.030;2022-12-29T11:31:40;97525.13;;;10.52;100.00
68226;BME280;55045;49.410;11.030;2022-12-29T11:34:45;97503.25;;;10.42;100.00
68226;BME280;55045;49.410;11.030;2022-12-29T11:37:55;97526.75;;;10.39;100.00
68226;BME280;55045;49.410;11.030;2022-12-29T11:41:04;97525.78;;;10.56;100.00
68226;BME280;55045;49.410;11.030;2022-12-29T11:44:12;97528.47;;;10.54;100.00
68226;BME280;55045;49.410;11.030;2022-12-29T11:47:26;97522.59;;;10.66;100.00
68226;BME280;55045;49.410;11.030;2022-12-29T11:50:31;97528.16;;;10.75;100.00
68226;BME280;55045;49.410;11.030;2022-12-29T11:53:41;97529.66;;;10.93;100.00
68226;BME280;55045;49.410;11.030;2022-12-29T11:56:46;97529.13;;;11.02;100.00
68226;BME280;55045;49.410;11.030;2022-12-29T11:59:51;97525.16;;;11.11;100.00
68226;BME280;55045;49.410;11.030;2022-12-29T12:03:00;97480.91;;;10.70;100.00
68226;BME280;55045;49.410;11.030;2022-12-29T12:06:07;97511.88;;;11.01;100.00
68226;BME280;55045;49.410;11.030;2022-12-29T12:09:22;97242.34;;;9.24;100.00
68226;BME280;55045;49.410;11.030;2022-12-29T12:12:30;97509.31;;;11.15;100.00
68226;BME280;55045;49.410;11.030;2022-12-29T12:15:40;97517.16;;;11.00;100.00
68226;BME280;55045;49.410;11.030;2022-12-29T12:18:52;97498.53;;;11.21;100.00
68226;BME280;55045;49.410;11.030;2022-12-29T12:22:00;97501.88;;;11.09;100.00
68226;BME280;55045;49.410;11.030;2022-12-29T12:25:14;97503.63;;;11.23;100.00
68226;BME280;55045;49.410;11.030;2022-12-29T12:28:28;97518.38;;;11.08;100.00
68226;BME280;55045;49.410;11.030;2022-12-29T12:31:44;97510.97;;;11.16;100.00
68226;BME280;55045;49.410;11.030;2022-12-29T12:34:50;97507.44;;;11.03;100.00
68226;BME280;55045;49.410;11.030;2022-12-29T12:38:09;97510.31;;;11.13;100.00
68226;BME280;55045;49.410;11.030;2022-12-29T12:41:20;97510.59;;;11.08;100.00
68226;BME280;55045;49.410;11.030;2022-12-29T12:44:35;97519.03;;;11.12;100.00
68226;BME280;55045;49.410;11.030;2022-12-29T12:47:53;97516.91;;;11.04;100.00
68226;BME280;55045;49.410;11.030;2022-12-29T12:51:09;97531.50;;;10.91;100.00
68226;BME280;55045;49.410;11.030;2022-12-29T12:54:32;97520.97;;;10.94;100.00
68226;BME280;55045;49.410;11.030;2022-12-29T12:57:47;97515.75;;;10.80;100.00
68226;BME280;55045;49.410;11.030;2022-12-29T13:01:04;97514.06;;;10.79;100.00
68226;BME280;55045;49.410;11.030;2022-12-29T13:04:39;97523.91;;;10.74;100.00
68226;BME280;55045;49.410;11.030;2022-12-29T13:07:52;97527.13;;;10.63;100.00
68226;BME280;55045;49.410;11.030;2022-12-29T13:11:02;97532.00;;;10.53;100.00
68226;BME280;55045;49.410;11.030;2022-12-29T13:14:21;97539.72;;;10.39;100.00
68226;BME280;55045;49.410;11.030;2022-12-29T13:17:32;97530.88;;;10.27;100.00
68226;BME280;55045;49.410;11.030;2022-12-29T13:20:43;97533.78;;;10.37;100.00
68226;BME280;55045;49.410;11.030;2022-12-29T13:23:54;97526.06;;;10.20;100.00
68226;BME280;55045;49.410;11.030;2022-12-29T13:27:08;97522.25;;;10.27;100.00
68226;BME280;55045;49.410;11.030;2022-12-29T13:30:19;97533.84;;;10.20;100.00
68226;BME280;55045;49.410;11.030;2022-12-29T13:33:30;97537.25;;;10.22;100.00
68226;BME280;55045;49.410;11.030;2022-12-29T13:36:42;97534.53;;;10.07;100.00
68226;BME280;55045;49.410;11.030;2022-12-29T13:39:49;97528.03;;;10.32;100.00
68226;BME280;55045;49.410;11.030;2022-12-29T13:43:16;97526.06;;;10.20;100.00
68226;BME280;55045;49.410;11.030;2022-12-29T13:46:44;97527.66;;;10.38;100.00
68226;BME280;55045;49.410;11.030;2022-12-29T13:50:13;97533.28;;;10.30;100.00
68226;BME280;55045;49.410;11.030;2022-12-29T13:53:48;97536.16;;;10.26;100.00
68226;BME280;55045;49.410;11.030;2022-12-29T13:57:37;97538.91;;;10.23;100.00
68226;BME280;55045;49.410;11.030;2022-12-29T14:00:47;97544.09;;;10.23;100.00
68226;BME280;55045;49.410;11.030;2022-12-29T14:03:55;97535.31;;;10.25;100.00
68226;BME280;55045;49.410;11.030;2022-12-29T14:07:04;97542.81;;;10.30;100.00
68226;BME280;55045;49.410;11.030;2022-12-29T14:10:30;97548.91;;;10.29;100.00
68226;BME280;55045;49.410;11.030;2022-12-29T14:13:57;97541.06;;;10.15;100.00
68226;BME280;55045;49.410;11.030;2022-12-29T14:17:21;97554.03;;;10.15;100.00
68226;BME280;55045;49.410;11.030;2022-12-29T14:20:53;97549.75;;;9.98;100.00
68226;BME280;55045;49.410;11.030;2022-12-29T14:27:53;97543.91;;;9.94;100.00
68226;BME280;55045;49.410;11.030;2022-12-29T14:30:58;97545.16;;;9.87;100.00
68226;BME280;55045;49.410;11.030;2022-12-29T14:34:26;97534.06;;;9.85;100.00
68226;BME280;55045;49.410;11.030;2022-12-29T14:37:33;97546.16;;;9.85;100.00
68226;BME280;55045;49.410;11.030;2022-12-29T14:40:37;97548.84;;;9.83;100.00
68226;BME280;55045;49.410;11.030;2022-12-29T14:43:52;97552.41;;;9.80;100.00
68226;BME280;55045;49.410;11.030;2022-12-29T14:46:58;97543.91;;;9.78;100.00
68226;BME280;55045;49.410;11.030;2022-12-29T14:50:04;97540.34;;;9.81;100.00
68226;BME280;55045;49.410;11.030;2022-12-29T14:53:41;97539.72;;;9.76;100.00
68226;BME280;55045;49.410;11.030;2022-12-29T14:56:45;97538.28;;;9.70;100.00
68226;BME280;55045;49.410;11.030;2022-12-29T14:59:53;97556.94;;;9.61;100.00
68226;BME280;55045;49.410;11.030;2022-12-29T15:03:03;97537.13;;;9.60;100.00
68226;BME280;55045;49.410;11.030;2022-12-29T15:06:09;97554.41;;;9.60;100.00
68226;BME280;55045;49.410;11.030;2022-12-29T15:09:37;97563.56;;;9.49;100.00
68226;BME280;55045;49.410;11.030;2022-12-29T15:13:03;97471.72;;;8.92;100.00
68226;BME280;55045;49.410;11.030;2022-12-29T15:16:31;97548.22;;;9.46;100.00
68226;BME280;55045;49.410;11.030;2022-12-29T15:19:55;97567.00;;;9.50;100.00
68226;BME280;55045;49.410;11.030;2022-12-29T15:23:02;97566.41;;;9.45;100.00
68226;BME280;55045;49.410;11.030;2022-12-29T15:26:08;97572.16;;;9.34;100.00
68226;BME280;55045;49.410;11.030;2022-12-29T15:29:30;97570.16;;;9.39;100.00
68226;BME280;55045;49.410;11.030;2022-12-29T15:32:53;97571.41;;;9.32;100.00
68226;BME280;55045;49.410;11.030;2022-12-29T15:36:19;97547.28;;;9.32;100.00
68226;BME280;55045;49.410;11.030;2022-12-29T15:39:42;97565.13;;;9.36;100.00
68226;BME280;55045;49.410;11.030;2022-12-29T15:43:39;97539.00;;;9.25;100.00
68226;BME280;55045;49.410;11.030;2022-12-29T15:46:48;97537.41;;;9.22;100.00
68226;BME280;55045;49.410;11.030;2022-12-29T15:49:53;97561.53;;;9.23;100.00
68226;BME280;55045;49.410;11.030;2022-12-29T15:53:00;97575.00;;;9.12;100.00
68226;BME280;55045;49.410;11.030;2022-12-29T15:56:07;97576.00;;;9.10;100.00
68226;BME280;55045;49.410;11.030;2022-12-29T15:59:25;97566.34;;;8.96;100.00
68226;BME280;55045;49.410;11.030;2022-12-29T16:02:30;97572.63;;;9.08;100.00
68226;BME280;55045;49.410;11.030;2022-12-29T16:05:34;97547.72;;;8.89;100.00
68226;BME280;55045;49.410;11.030;2022-12-29T16:08:39;97579.47;;;9.09;100.00
68226;BME280;55045;49.410;11.030;2022-12-29T16:11:44;97559.78;;;9.06;100.00
68226;BME280;55045;49.410;11.030;2022-12-29T16:14:54;97577.16;;;9.04;100.00
68226;BME280;55045;49.410;11.030;2022-12-29T16:17:58;97579.19;;;9.15;100.00
68226;BME280;55045;49.410;11.030;2022-12-29T16:21:03;97568.09;;;9.13;100.00
68226;BME280;55045;49.410;11.030;2022-12-29T16:24:12;97581.78;;;9.15;100.00
68226;BME280;55045;49.410;11.030;2022-12-29T16:27:21;97577.50;;;9.14;100.00
68226;BME280;55045;49.410;11.030;2022-12-29T16:34:41;97604.59;;;9.07;100.00
68226;BME280;55045;49.410;11.030;2022-12-29T16:37:47;97601.38;;;9.19;100.00
68226;BME280;55045;49.410;11.030;2022-12-29T16:40:51;97551.44;;;8.84;100.00
68226;BME280;55045;49.410;11.030;2022-12-29T16:44:12;97601.38;;;9.19;100.00
68226;BME280;55045;49.410;11.030;2022-12-29T16:47:20;97586.28;;;9.11;100.00
68226;BME280;55045;49.410;11.030;2022-12-29T16:50:26;97598.97;;;9.16;100.00
68226;BME280;55045;49.410;11.030;2022-12-29T16:53:33;97600.56;;;9.18;100.00
68226;BME280;55045;49.410;11.030;2022-12-29T16:56:43;97576.97;;;9.07;100.00
68226;BME280;55045;49.410;11.030;2022-12-29T16:59:51;97574.94;;;8.97;100.00
68226;BME280;55045;49.410;11.030;2022-12-29T17:02:58;97582.41;;;9.03;100.00
68226;BME280;55045;49.410;11.030;2022-12-29T17:06:04;97601.09;;;9.08;100.00
68226;BME280;55045;49.410;11.030;2022-12-29T17:09:19;97593.66;;;9.02;100.00
68226;BME280;55045;49.410;11.030;2022-12-29T17:12:25;97603.69;;;9.08;100.00
68226;BME280;55045;49.410;11.030;2022-12-29T17:15:29;97602.78;;;8.91;100.00
68226;BME280;55045;49.410;11.030;2022-12-29T17:18:34;97608.72;;;8.93;100.00
68226;BME280;55045;49.410;11.030;2022-12-29T17:21:41;97610.22;;;8.98;100.00
68226;BME280;55045;49.410;11.030;2022-12-29T17:24:45;97617.22;;;8.78;100.00
68226;BME280;55045;49.410;11.030;2022-12-29T17:27:51;97636.88;;;8.82;100.00
68226;BME280;55045;49.410;11.030;2022-12-29T17:30:59;97681.34;;;8.72;100.00
68226;BME280;55045;49.410;11.030;2022-12-29T17:34:03;97692.66;;;8.31;100.00
68226;BME280;55045;49.410;11.030;2022-12-29T17:37:25;97717.66;;;8.31;100.00
68226;BME280;55045;49.410;11.030;2022-12-29T17:40:32;97732.94;;;8.17;100.00
68226;BME280;55045;49.410;11.030;2022-12-29T17:43:35;97736.97;;;8.03;100.00
68226;BME280;55045;49.410;11.030;2022-12-29T17:46:39;97726.19;;;7.94;100.00
68226;BME280;55045;49.410;11.030;2022-12-29T17:49:44;97731.28;;;7.95;100.00
68226;BME280;55045;49.410;11.030;2022-12-29T17:52:51;97729.00;;;7.89;100.00
68226;BME280;55045;49.410;11.030;2022-12-29T17:56:01;97720.75;;;7.81;100.00